sensor_id;sensor_type;location;lat;lon;timestamp;P1;durP1;ratioP1;P2;durP2;ratioP2
20283;SDS011;10301;50.832;4.080;2023-04-07T00:02:16;14.30;;;6.90;;
20283;SDS011;10301;50.832;4.080;2023-04-07T00:04:41;13.90;;;6.53;;
20283;SDS011;10301;50.832;4.080;2023-04-07T00:07:07;12.60;;;6.93;;
20283;SDS011;10301;50.832;4.080;2023-04-07T00:09:33;13.95;;;6.78;;
20283;SDS011;10301;50.832;4.080;2023-04-07T00:11:59;13.30;;;6.93;;
20283;SDS011;10301;50.832;4.080;2023-04-07T00:14:27;13.45;;;6.80;;
20283;SDS011;10301;50.832;4.080;2023-04-07T00:16:53;11.85;;;6.57;;
20283;SDS011;10301;50.832;4.080;2023-04-07T00:19:19;13.30;;;6.82;;
20283;SDS011;10301;50.832;4.080;2023-04-07T00:21:44;11.82;;;6.95;;
20283;SDS011;10301;50.832;4.080;2023-04-07T00:24:10;10.30;;;6.00;;
20283;SDS011;10301;50.832;4.080;2023-04-07T00:26:36;12.88;;;6.70;;
20283;SDS011;10301;50.832;4.080;2023-04-07T00:29:02;10.95;;;6.35;;
20283;SDS011;10301;50.832;4.080;2023-04-07T00:31:28;13.52;;;6.82;;
20283;SDS011;10301;50.832;4.080;2023-04-07T00:33:54;12.10;;;6.73;;
20283;SDS011;10301;50.832;4.080;2023-04-07T00:36:21;13.63;;;7.75;;
20283;SDS011;10301;50.832;4.080;2023-04-07T00:38:47;14.07;;;7.78;;
20283;SDS011;10301;50.832;4.080;2023-04-07T00:41:13;12.70;;;7.45;;
20283;SDS011;10301;50.832;4.080;2023-04-07T00:43:39;11.52;;;7.25;;
20283;SDS011;10301;50.832;4.080;2023-04-07T00:46:04;14.75;;;7.80;;
20283;SDS011;10301;50.832;4.080;2023-04-07T00:48:30;12.65;;;7.50;;
20283;SDS011;10301;50.832;4.080;2023-04-07T00:50:56;13.60;;;7.60;;
20283;SDS011;10301;50.832;4.080;2023-04-07T00:53:21;11.80;;;7.20;;
20283;SDS011;10301;50.832;4.080;2023-04-07T00:55:47;13.82;;;7.53;;
20283;SDS011;10301;50.832;4.080;2023-04-07T00:58:13;11.68;;;7.38;;
20283;SDS011;10301;50.832;4.080;2023-04-07T01:00:44;14.13;;;7.50;;
20283;SDS011;10301;50.832;4.080;2023-04-07T01:03:19;12.67;;;7.73;;
20283;SDS011;10301;50.832;4.080;2023-04-07T01:06:02;13.40;;;7.73;;
20283;SDS011;10301;50.832;4.080;2023-04-07T01:08:50;14.07;;;7.67;;
20283;SDS011;10301;50.832;4.080;2023-04-07T01:11:41;15.63;;;7.88;;
20283;SDS011;10301;50.832;4.080;2023-04-07T01:14:16;15.13;;;6.47;;
20283;SDS011;10301;50.832;4.080;2023-04-07T01:16:50;15.85;;;7.47;;
20283;SDS011;10301;50.832;4.080;2023-04-07T01:19:31;11.45;;;7.07;;
20283;SDS011;10301;50.832;4.080;2023-04-07T01:22:06;11.83;;;6.80;;
20283;SDS011;10301;50.832;4.080;2023-04-07T01:30:13;10.73;;;6.47;;
20283;SDS011;10301;50.832;4.080;2023-04-07T01:32:40;18.83;;;6.43;;
20283;SDS011;10301;50.832;4.080;2023-04-07T01:35:10;12.32;;;5.80;;
20283;SDS011;10301;50.832;4.080;2023-04-07T01:37:37;10.75;;;6.28;;
20283;SDS011;10301;50.832;4.080;2023-04-07T01:40:04;13.88;;;6.55;;
20283;SDS011;10301;50.832;4.080;2023-04-07T01:42:32;14.48;;;6.00;;
20283;SDS011;10301;50.832;4.080;2023-04-07T01:44:58;13.05;;;6.00;;
20283;SDS011;10301;50.832;4.080;2023-04-07T01:47:26;10.88;;;5.90;;
20283;SDS011;10301;50.832;4.080;2023-04-07T01:49:57;11.23;;;5.83;;
20283;SDS011;10301;50.832;4.080;2023-04-07T01:52:25;12.23;;;6.20;;
20283;SDS011;10301;50.832;4.080;2023-04-07T01:54:52;11.27;;;5.75;;
20283;SDS011;10301;50.832;4.080;2023-04-07T01:57:18;9.82;;;5.05;;
20283;SDS011;10301;50.832;4.080;2023-04-07T01:59:46;13.70;;;5.40;;
20283;SDS011;10301;50.832;4.080;2023-04-07T02:02:11;10.52;;;5.45;;
20283;SDS011;10301;50.832;4.080;2023-04-07T02:04:39;11.63;;;5.80;;
20283;SDS011;10301;50.832;4.080;2023-04-07T02:07:24;11.43;;;5.07;;
20283;SDS011;10301;50.832;4.080;2023-04-07T02:09:55;10.47;;;4.80;;
20283;SDS011;10301;50.832;4.080;2023-04-07T02:12:25;11.70;;;5.27;;
20283;SDS011;10301;50.832;4.080;2023-04-07T02:14:53;8.90;;;4.70;;
20283;SDS011;10301;50.832;4.080;2023-04-07T02:17:21;12.07;;;5.00;;
20283;SDS011;10301;50.832;4.080;2023-04-07T02:19:49;10.03;;;4.33;;
20283;SDS011;10301;50.832;4.080;2023-04-07T02:22:16;12.57;;;4.57;;
20283;SDS011;10301;50.832;4.080;2023-04-07T02:24:44;13.07;;;4.03;;
20283;SDS011;10301;50.832;4.080;2023-04-07T02:27:09;10.43;;;4.80;;
20283;SDS011;10301;50.832;4.080;2023-04-07T02:29:35;10.30;;;3.93;;
20283;SDS011;10301;50.832;4.080;2023-04-07T02:32:01;8.20;;;4.23;;
20283;SDS011;10301;50.832;4.080;2023-04-07T02:34:26;9.47;;;4.70;;
20283;SDS011;10301;50.832;4.080;2023-04-07T02:36:52;8.67;;;4.57;;
20283;SDS011;10301;50.832;4.080;2023-04-07T02:39:18;8.77;;;3.97;;
20283;SDS011;10301;50.832;4.080;2023-04-07T02:41:44;10.37;;;4.10;;
20283;SDS011;10301;50.832;4.080;2023-04-07T02:44:10;11.97;;;4.03;;
20283;SDS011;10301;50.832;4.080;2023-04-07T02:46:35;7.87;;;3.47;;
20283;SDS011;10301;50.832;4.080;2023-04-07T02:49:01;8.20;;;3.83;;
20283;SDS011;10301;50.832;4.080;2023-04-07T02:51:26;8.50;;;3.80;;
20283;SDS011;10301;50.832;4.080;2023-04-07T02:53:52;8.17;;;3.83;;
20283;SDS011;10301;50.832;4.080;2023-04-07T02:56:18;13.67;;;4.20;;
20283;SDS011;10301;50.832;4.080;2023-04-07T02:58:44;7.50;;;3.97;;
20283;SDS011;10301;50.832;4.080;2023-04-07T03:01:10;10.80;;;4.00;;
20283;SDS011;10301;50.832;4.080;2023-04-07T03:03:36;8.67;;;4.50;;
20283;SDS011;10301;50.832;4.080;2023-04-07T03:06:03;9.77;;;4.97;;
20283;SDS011;10301;50.832;4.080;2023-04-07T03:08:29;10.00;;;5.07;;
20283;SDS011;10301;50.832;4.080;2023-04-07T03:10:55;11.60;;;4.97;;
20283;SDS011;10301;50.832;4.080;2023-04-07T03:13:20;10.13;;;5.40;;
20283;SDS011;10301;50.832;4.080;2023-04-07T03:15:46;11.33;;;5.33;;
20283;SDS011;10301;50.832;4.080;2023-04-07T03:18:12;12.00;;;5.60;;
20283;SDS011;10301;50.832;4.080;2023-04-07T03:20:38;13.13;;;5.60;;
20283;SDS011;10301;50.832;4.080;2023-04-07T03:23:05;15.00;;;6.00;;
20283;SDS011;10301;50.832;4.080;2023-04-07T03:25:31;14.60;;;6.17;;
20283;SDS011;10301;50.832;4.080;2023-04-07T03:27:57;12.93;;;6.27;;
20283;SDS011;10301;50.832;4.080;2023-04-07T03:30:23;13.77;;;6.10;;
20283;SDS011;10301;50.832;4.080;2023-04-07T03:32:49;15.73;;;6.90;;
20283;SDS011;10301;50.832;4.080;2023-04-07T03:35:15;14.67;;;6.73;;
20283;SDS011;10301;50.832;4.080;2023-04-07T03:37:40;12.67;;;6.93;;
20283;SDS011;10301;50.832;4.080;2023-04-07T03:40:06;14.20;;;7.07;;
20283;SDS011;10301;50.832;4.080;2023-04-07T03:42:32;16.03;;;7.90;;
20283;SDS011;10301;50.832;4.080;2023-04-07T03:44:58;19.87;;;8.13;;
20283;SDS011;10301;50.832;4.080;2023-04-07T03:47:23;14.20;;;8.07;;
20283;SDS011;10301;50.832;4.080;2023-04-07T03:49:49;14.10;;;8.03;;
20283;SDS011;10301;50.832;4.080;2023-04-07T03:52:15;17.47;;;9.20;;
20283;SDS011;10301;50.832;4.080;2023-04-07T03:54:40;14.97;;;8.43;;
20283;SDS011;10301;50.832;4.080;2023-04-07T03:57:06;17.27;;;8.43;;
20283;SDS011;10301;50.832;4.080;2023-04-07T03:59:32;17.67;;;8.57;;
20283;SDS011;10301;50.832;4.080;2023-04-07T04:01:57;21.23;;;9.33;;
20283;SDS011;10301;50.832;4.080;2023-04-07T04:04:23;20.97;;;9.17;;
20283;SDS011;10301;50.832;4.080;2023-04-07T04:06:49;20.40;;;9.83;;
20283;SDS011;10301;50.832;4.080;2023-04-07T04:09:15;23.63;;;10.37;;
20283;SDS011;10301;50.832;4.080;2023-04-07T04:11:41;18.57;;;9.87;;
20283;SDS011;10301;50.832;4.080;2023-04-07T04:14:07;23.77;;;9.97;;
20283;SDS011;10301;50.832;4.080;2023-04-07T04:16:32;19.17;;;10.17;;
20283;SDS011;10301;50.832;4.080;2023-04-07T04:18:59;20.60;;;10.47;;
20283;SDS011;10301;50.832;4.080;2023-04-07T04:21:25;22.23;;;10.90;;
20283;SDS011;10301;50.832;4.080;2023-04-07T04:23:51;23.97;;;12.20;;
20283;SDS011;10301;50.832;4.080;2023-04-07T04:26:17;21.20;;;11.63;;
20283;SDS011;10301;50.832;4.080;2023-04-07T04:28:43;25.40;;;11.50;;
20283;SDS011;10301;50.832;4.080;2023-04-07T04:31:09;25.87;;;12.43;;
20283;SDS011;10301;50.832;4.080;2023-04-07T04:33:34;21.63;;;11.83;;
20283;SDS011;10301;50.832;4.080;2023-04-07T04:36:00;24.10;;;10.97;;
20283;SDS011;10301;50.832;4.080;2023-04-07T04:38:26;19.37;;;11.97;;
20283;SDS011;10301;50.832;4.080;2023-04-07T04:40:51;24.00;;;13.57;;
20283;SDS011;10301;50.832;4.080;2023-04-07T04:43:17;22.17;;;12.27;;
20283;SDS011;10301;50.832;4.080;2023-04-07T04:45:43;24.40;;;12.53;;
20283;SDS011;10301;50.832;4.080;2023-04-07T04:48:08;26.27;;;13.10;;
20283;SDS011;10301;50.832;4.080;2023-04-07T04:50:35;25.40;;;13.00;;
20283;SDS011;10301;50.832;4.080;2023-04-07T04:53:01;26.67;;;12.80;;
20283;SDS011;10301;50.832;4.080;2023-04-07T04:55:27;28.77;;;13.63;;
20283;SDS011;10301;50.832;4.080;2023-04-07T04:57:52;25.73;;;12.43;;
20283;SDS011;10301;50.832;4.080;2023-04-07T05:00:18;26.10;;;13.13;;
20283;SDS011;10301;50.832;4.080;2023-04-07T05:02:45;26.20;;;12.93;;
20283;SDS011;10301;50.832;4.080;2023-04-07T05:05:11;23.10;;;12.50;;
20283;SDS011;10301;50.832;4.080;2023-04-07T05:07:36;24.03;;;12.40;;
20283;SDS011;10301;50.832;4.080;2023-04-07T05:10:04;24.63;;;14.27;;
20283;SDS011;10301;50.832;4.080;2023-04-07T05:12:31;27.43;;;14.13;;
20283;SDS011;10301;50.832;4.080;2023-04-07T05:14:57;27.17;;;14.07;;
20283;SDS011;10301;50.832;4.080;2023-04-07T05:17:22;28.77;;;14.67;;
20283;SDS011;10301;50.832;4.080;2023-04-07T05:19:48;25.53;;;14.63;;
20283;SDS011;10301;50.832;4.080;2023-04-07T05:22:14;26.67;;;14.57;;
20283;SDS011;10301;50.832;4.080;2023-04-07T05:24:40;26.47;;;14.70;;
20283;SDS011;10301;50.832;4.080;2023-04-07T05:27:06;27.53;;;14.07;;
20283;SDS011;10301;50.832;4.080;2023-04-07T05:29:31;26.87;;;14.07;;
20283;SDS011;10301;50.832;4.080;2023-04-07T05:31:57;27.83;;;15.30;;
20283;SDS011;10301;50.832;4.080;2023-04-07T05:34:23;29.30;;;14.93;;
20283;SDS011;10301;50.832;4.080;2023-04-07T05:36:49;24.43;;;14.80;;
20283;SDS011;10301;50.832;4.080;2023-04-07T05:39:15;26.97;;;15.33;;
20283;SDS011;10301;50.832;4.080;2023-04-07T05:41:41;32.20;;;16.70;;
20283;SDS011;10301;50.832;4.080;2023-04-07T05:44:07;29.70;;;15.83;;
20283;SDS011;10301;50.832;4.080;2023-04-07T05:46:33;36.23;;;17.17;;
20283;SDS011;10301;50.832;4.080;2023-04-07T05:48:58;34.20;;;16.63;;
20283;SDS011;10301;50.832;4.080;2023-04-07T05:51:24;30.63;;;15.77;;
20283;SDS011;10301;50.832;4.080;2023-04-07T05:53:50;32.57;;;16.47;;
20283;SDS011;10301;50.832;4.080;2023-04-07T05:56:18;31.80;;;16.20;;
20283;SDS011;10301;50.832;4.080;2023-04-07T05:58:45;31.10;;;15.50;;
20283;SDS011;10301;50.832;4.080;2023-04-07T06:01:11;31.23;;;16.03;;
20283;SDS011;10301;50.832;4.080;2023-04-07T06:03:36;31.10;;;16.93;;
20283;SDS011;10301;50.832;4.080;2023-04-07T06:06:03;40.83;;;21.43;;
20283;SDS011;10301;50.832;4.080;2023-04-07T06:08:28;37.73;;;18.73;;
20283;SDS011;10301;50.832;4.080;2023-04-07T06:10:54;36.97;;;17.90;;
20283;SDS011;10301;50.832;4.080;2023-04-07T06:13:20;33.77;;;18.03;;
20283;SDS011;10301;50.832;4.080;2023-04-07T06:15:46;36.70;;;18.87;;
20283;SDS011;10301;50.832;4.080;2023-04-07T06:18:11;41.00;;;18.90;;
20283;SDS011;10301;50.832;4.080;2023-04-07T06:20:37;41.63;;;20.23;;
20283;SDS011;10301;50.832;4.080;2023-04-07T06:23:02;47.77;;;20.30;;
20283;SDS011;10301;50.832;4.080;2023-04-07T06:25:28;47.43;;;21.50;;
20283;SDS011;10301;50.832;4.080;2023-04-07T06:27:54;61.03;;;27.60;;
20283;SDS011;10301;50.832;4.080;2023-04-07T06:30:20;49.70;;;26.03;;
20283;SDS011;10301;50.832;4.080;2023-04-07T06:32:45;46.03;;;23.07;;
20283;SDS011;10301;50.832;4.080;2023-04-07T06:35:11;52.50;;;23.57;;
20283;SDS011;10301;50.832;4.080;2023-04-07T06:37:37;53.87;;;22.33;;
20283;SDS011;10301;50.832;4.080;2023-04-07T06:40:03;55.03;;;23.20;;
20283;SDS011;10301;50.832;4.080;2023-04-07T06:42:30;56.77;;;24.13;;
20283;SDS011;10301;50.832;4.080;2023-04-07T06:44:56;46.57;;;21.20;;
20283;SDS011;10301;50.832;4.080;2023-04-07T06:47:21;63.80;;;24.20;;
20283;SDS011;10301;50.832;4.080;2023-04-07T06:49:48;72.70;;;25.63;;
20283;SDS011;10301;50.832;4.080;2023-04-07T06:52:13;67.33;;;26.30;;
20283;SDS011;10301;50.832;4.080;2023-04-07T06:54:39;72.07;;;26.07;;
20283;SDS011;10301;50.832;4.080;2023-04-07T06:57:05;70.43;;;26.63;;
20283;SDS011;10301;50.832;4.080;2023-04-07T06:59:35;64.33;;;25.17;;
20283;SDS011;10301;50.832;4.080;2023-04-07T07:02:01;64.33;;;26.30;;
20283;SDS011;10301;50.832;4.080;2023-04-07T07:04:27;65.53;;;25.27;;
20283;SDS011;10301;50.832;4.080;2023-04-07T07:06:53;63.00;;;23.50;;
20283;SDS011;10301;50.832;4.080;2023-04-07T07:09:20;56.43;;;22.90;;
20283;SDS011;10301;50.832;4.080;2023-04-07T07:11:45;53.97;;;22.43;;
20283;SDS011;10301;50.832;4.080;2023-04-07T07:14:11;52.23;;;22.17;;
20283;SDS011;10301;50.832;4.080;2023-04-07T07:16:37;47.50;;;20.93;;
20283;SDS011;10301;50.832;4.080;2023-04-07T07:19:03;45.43;;;19.50;;
20283;SDS011;10301;50.832;4.080;2023-04-07T07:21:28;42.10;;;19.63;;
20283;SDS011;10301;50.832;4.080;2023-04-07T07:23:55;41.43;;;17.37;;
20283;SDS011;10301;50.832;4.080;2023-04-07T07:26:21;34.23;;;16.27;;
20283;SDS011;10301;50.832;4.080;2023-04-07T07:28:47;31.93;;;16.17;;
20283;SDS011;10301;50.832;4.080;2023-04-07T07:31:12;37.70;;;17.73;;
20283;SDS011;10301;50.832;4.080;2023-04-07T07:33:39;35.67;;;17.40;;
20283;SDS011;10301;50.832;4.080;2023-04-07T07:36:07;37.73;;;17.67;;
20283;SDS011;10301;50.832;4.080;2023-04-07T07:38:33;38.47;;;17.23;;
20283;SDS011;10301;50.832;4.080;2023-04-07T07:40:59;35.33;;;18.07;;
20283;SDS011;10301;50.832;4.080;2023-04-07T07:43:25;39.90;;;19.23;;
20283;SDS011;10301;50.832;4.080;2023-04-07T07:45:50;41.07;;;18.23;;
20283;SDS011;10301;50.832;4.080;2023-04-07T07:48:16;33.07;;;16.23;;
20283;SDS011;10301;50.832;4.080;2023-04-07T07:50:42;38.37;;;17.43;;
20283;SDS011;10301;50.832;4.080;2023-04-07T07:53:08;40.27;;;18.40;;
20283;SDS011;10301;50.832;4.080;2023-04-07T07:55:34;33.50;;;16.17;;
20283;SDS011;10301;50.832;4.080;2023-04-07T07:58:00;40.93;;;18.90;;
20283;SDS011;10301;50.832;4.080;2023-04-07T08:00:26;34.43;;;16.27;;
20283;SDS011;10301;50.832;4.080;2023-04-07T08:02:52;33.80;;;15.23;;
20283;SDS011;10301;50.832;4.080;2023-04-07T08:05:18;35.40;;;17.57;;
20283;SDS011;10301;50.832;4.080;2023-04-07T08:07:44;32.73;;;15.77;;
20283;SDS011;10301;50.832;4.080;2023-04-07T08:10:10;35.57;;;15.80;;
20283;SDS011;10301;50.832;4.080;2023-04-07T08:12:37;33.10;;;15.77;;
20283;SDS011;10301;50.832;4.080;2023-04-07T08:15:03;30.33;;;15.40;;
20283;SDS011;10301;50.832;4.080;2023-04-07T08:17:31;31.90;;;15.37;;
20283;SDS011;10301;50.832;4.080;2023-04-07T08:19:57;35.73;;;17.33;;
20283;SDS011;10301;50.832;4.080;2023-04-07T08:22:22;32.03;;;16.50;;
20283;SDS011;10301;50.832;4.080;2023-04-07T08:24:48;36.83;;;18.43;;
20283;SDS011;10301;50.832;4.080;2023-04-07T08:27:14;33.83;;;17.93;;
20283;SDS011;10301;50.832;4.080;2023-04-07T08:29:39;31.50;;;16.47;;
20283;SDS011;10301;50.832;4.080;2023-04-07T08:32:05;37.83;;;17.90;;
20283;SDS011;10301;50.832;4.080;2023-04-07T08:34:31;39.27;;;17.10;;
20283;SDS011;10301;50.832;4.080;2023-04-07T08:36:56;36.63;;;19.00;;
20283;SDS011;10301;50.832;4.080;2023-04-07T08:39:22;29.60;;;16.00;;
20283;SDS011;10301;50.832;4.080;2023-04-07T08:41:49;35.53;;;17.73;;
20283;SDS011;10301;50.832;4.080;2023-04-07T08:44:15;28.80;;;15.93;;
20283;SDS011;10301;50.832;4.080;2023-04-07T08:46:42;30.07;;;15.80;;
20283;SDS011;10301;50.832;4.080;2023-04-07T08:49:09;26.50;;;13.87;;
20283;SDS011;10301;50.832;4.080;2023-04-07T08:51:37;23.77;;;13.67;;
20283;SDS011;10301;50.832;4.080;2023-04-07T08:54:15;23.98;;;14.10;;
20283;SDS011;10301;50.832;4.080;2023-04-07T08:56:46;24.63;;;14.40;;
20283;SDS011;10301;50.832;4.080;2023-04-07T08:59:13;21.90;;;13.02;;
20283;SDS011;10301;50.832;4.080;2023-04-07T09:01:42;24.40;;;12.77;;
20283;SDS011;10301;50.832;4.080;2023-04-07T09:04:08;21.38;;;11.80;;
20283;SDS011;10301;50.832;4.080;2023-04-07T09:06:34;17.23;;;10.98;;
20283;SDS011;10301;50.832;4.080;2023-04-07T09:09:01;14.85;;;9.00;;
20283;SDS011;10301;50.832;4.080;2023-04-07T09:11:27;15.40;;;9.32;;
20283;SDS011;10301;50.832;4.080;2023-04-07T09:13:54;17.08;;;8.63;;
20283;SDS011;10301;50.832;4.080;2023-04-07T09:16:21;17.70;;;9.68;;
20283;SDS011;10301;50.832;4.080;2023-04-07T09:18:49;16.95;;;9.35;;
20283;SDS011;10301;50.832;4.080;2023-04-07T09:21:17;16.48;;;9.48;;
20283;SDS011;10301;50.832;4.080;2023-04-07T09:23:42;20.35;;;9.70;;
20283;SDS011;10301;50.832;4.080;2023-04-07T09:28:50;16.52;;;8.77;;
20283;SDS011;10301;50.832;4.080;2023-04-07T09:31:21;14.60;;;8.02;;
20283;SDS011;10301;50.832;4.080;2023-04-07T09:33:50;15.32;;;7.85;;
20283;SDS011;10301;50.832;4.080;2023-04-07T09:36:17;14.82;;;8.20;;
20283;SDS011;10301;50.832;4.080;2023-04-07T09:38:43;15.48;;;7.32;;
20283;SDS011;10301;50.832;4.080;2023-04-07T09:41:10;14.43;;;7.18;;
20283;SDS011;10301;50.832;4.080;2023-04-07T09:43:39;15.23;;;7.30;;
20283;SDS011;10301;50.832;4.080;2023-04-07T09:46:09;14.68;;;6.90;;
20283;SDS011;10301;50.832;4.080;2023-04-07T09:48:40;14.35;;;6.65;;
20283;SDS011;10301;50.832;4.080;2023-04-07T09:51:11;13.32;;;6.22;;
20283;SDS011;10301;50.832;4.080;2023-04-07T09:53:48;10.70;;;5.95;;
20283;SDS011;10301;50.832;4.080;2023-04-07T09:56:16;10.93;;;5.57;;
20283;SDS011;10301;50.832;4.080;2023-04-07T09:58:43;9.25;;;5.60;;
20283;SDS011;10301;50.832;4.080;2023-04-07T10:01:11;12.18;;;6.28;;
20283;SDS011;10301;50.832;4.080;2023-04-07T10:03:38;12.85;;;6.25;;
20283;SDS011;10301;50.832;4.080;2023-04-07T10:06:05;10.48;;;6.60;;
20283;SDS011;10301;50.832;4.080;2023-04-07T10:08:32;15.15;;;7.43;;
20283;SDS011;10301;50.832;4.080;2023-04-07T10:11:02;13.85;;;7.30;;
20283;SDS011;10301;50.832;4.080;2023-04-07T10:13:29;16.75;;;7.78;;
20283;SDS011;10301;50.832;4.080;2023-04-07T10:15:58;15.30;;;8.52;;
20283;SDS011;10301;50.832;4.080;2023-04-07T10:18:30;15.60;;;9.02;;
20283;SDS011;10301;50.832;4.080;2023-04-07T10:21:01;15.88;;;8.85;;
20283;SDS011;10301;50.832;4.080;2023-04-07T10:26:14;16.40;;;8.30;;
20283;SDS011;10301;50.832;4.080;2023-04-07T10:28:42;19.40;;;8.80;;
20283;SDS011;10301;50.832;4.080;2023-04-07T10:31:10;14.35;;;7.43;;
20283;SDS011;10301;50.832;4.080;2023-04-07T10:33:44;20.60;;;8.80;;
20283;SDS011;10301;50.832;4.080;2023-04-07T10:36:13;15.10;;;8.30;;
20283;SDS011;10301;50.832;4.080;2023-04-07T10:38:40;26.17;;;14.32;;
20283;SDS011;10301;50.832;4.080;2023-04-07T10:44:04;25.15;;;8.48;;
20283;SDS011;10301;50.832;4.080;2023-04-07T10:49:10;17.75;;;7.60;;
20283;SDS011;10301;50.832;4.080;2023-04-07T10:51:37;19.98;;;8.27;;
20283;SDS011;10301;50.832;4.080;2023-04-07T10:54:16;17.95;;;7.03;;
20283;SDS011;10301;50.832;4.080;2023-04-07T10:59:27;20.02;;;8.10;;
20283;SDS011;10301;50.832;4.080;2023-04-07T11:04:38;19.23;;;6.93;;
20283;SDS011;10301;50.832;4.080;2023-04-07T11:07:08;17.40;;;7.10;;
20283;SDS011;10301;50.832;4.080;2023-04-07T11:09:34;21.75;;;7.80;;
20283;SDS011;10301;50.832;4.080;2023-04-07T11:12:00;22.40;;;7.97;;
20283;SDS011;10301;50.832;4.080;2023-04-07T11:14:27;24.00;;;8.98;;
20283;SDS011;10301;50.832;4.080;2023-04-07T11:16:54;24.05;;;7.95;;
20283;SDS011;10301;50.832;4.080;2023-04-07T11:19:20;27.50;;;9.75;;
20283;SDS011;10301;50.832;4.080;2023-04-07T11:21:46;37.05;;;10.60;;
20283;SDS011;10301;50.832;4.080;2023-04-07T11:27:12;19.88;;;7.60;;
20283;SDS011;10301;50.832;4.080;2023-04-07T11:29:37;33.25;;;9.65;;
20283;SDS011;10301;50.832;4.080;2023-04-07T11:32:03;27.15;;;7.78;;
20283;SDS011;10301;50.832;4.080;2023-04-07T11:34:30;30.20;;;9.00;;
20283;SDS011;10301;50.832;4.080;2023-04-07T11:36:57;24.05;;;8.52;;
20283;SDS011;10301;50.832;4.080;2023-04-07T11:39:24;21.80;;;6.38;;
20283;SDS011;10301;50.832;4.080;2023-04-07T11:41:57;24.08;;;6.28;;
20283;SDS011;10301;50.832;4.080;2023-04-07T11:44:23;23.10;;;6.75;;
20283;SDS011;10301;50.832;4.080;2023-04-07T11:49:29;29.83;;;7.43;;
20283;SDS011;10301;50.832;4.080;2023-04-07T11:52:02;18.35;;;6.47;;
20283;SDS011;10301;50.832;4.080;2023-04-07T11:57:11;11.60;;;4.03;;
20283;SDS011;10301;50.832;4.080;2023-04-07T11:59:37;10.38;;;3.42;;
20283;SDS011;10301;50.832;4.080;2023-04-07T12:02:03;14.50;;;4.00;;
20283;SDS011;10301;50.832;4.080;2023-04-07T12:04:30;17.13;;;4.28;;
20283;SDS011;10301;50.832;4.080;2023-04-07T12:07:05;20.75;;;4.18;;
20283;SDS011;10301;50.832;4.080;2023-04-07T12:09:33;17.83;;;4.50;;
20283;SDS011;10301;50.832;4.080;2023-04-07T12:12:02;19.67;;;4.70;;
20283;SDS011;10301;50.832;4.080;2023-04-07T12:14:31;17.90;;;3.70;;
20283;SDS011;10301;50.832;4.080;2023-04-07T12:16:57;12.13;;;3.97;;
20283;SDS011;10301;50.832;4.080;2023-04-07T12:19:26;11.13;;;3.28;;
20283;SDS011;10301;50.832;4.080;2023-04-07T12:21:53;16.52;;;4.15;;
20283;SDS011;10301;50.832;4.080;2023-04-07T12:24:19;19.77;;;4.53;;
20283;SDS011;10301;50.832;4.080;2023-04-07T12:26:45;21.33;;;6.10;;
20283;SDS011;10301;50.832;4.080;2023-04-07T12:29:12;21.35;;;5.40;;
20283;SDS011;10301;50.832;4.080;2023-04-07T12:31:38;25.90;;;6.35;;
20283;SDS011;10301;50.832;4.080;2023-04-07T12:34:03;26.73;;;7.05;;
20283;SDS011;10301;50.832;4.080;2023-04-07T12:36:29;27.60;;;7.97;;
20283;SDS011;10301;50.832;4.080;2023-04-07T12:38:55;28.25;;;6.65;;
20283;SDS011;10301;50.832;4.080;2023-04-07T12:41:21;28.77;;;7.53;;
20283;SDS011;10301;50.832;4.080;2023-04-07T12:43:48;27.27;;;8.15;;
20283;SDS011;10301;50.832;4.080;2023-04-07T12:46:14;38.30;;;9.73;;
20283;SDS011;10301;50.832;4.080;2023-04-07T12:48:39;31.67;;;9.68;;
20283;SDS011;10301;50.832;4.080;2023-04-07T12:51:05;34.97;;;11.32;;
20283;SDS011;10301;50.832;4.080;2023-04-07T12:53:31;33.70;;;10.13;;
20283;SDS011;10301;50.832;4.080;2023-04-07T12:55:56;41.20;;;11.23;;
20283;SDS011;10301;50.832;4.080;2023-04-07T12:58:23;37.88;;;10.73;;
20283;SDS011;10301;50.832;4.080;2023-04-07T13:00:50;43.00;;;12.52;;
20283;SDS011;10301;50.832;4.080;2023-04-07T13:03:16;38.00;;;11.68;;
20283;SDS011;10301;50.832;4.080;2023-04-07T13:05:41;44.30;;;11.90;;
20283;SDS011;10301;50.832;4.080;2023-04-07T13:08:07;39.90;;;12.65;;
20283;SDS011;10301;50.832;4.080;2023-04-07T13:10:33;51.97;;;13.48;;
20283;SDS011;10301;50.832;4.080;2023-04-07T13:12:58;45.85;;;12.68;;
20283;SDS011;10301;50.832;4.080;2023-04-07T13:15:24;47.97;;;13.60;;
20283;SDS011;10301;50.832;4.080;2023-04-07T13:17:52;27.92;;;7.68;;
20283;SDS011;10301;50.832;4.080;2023-04-07T13:20:17;20.25;;;4.93;;
20283;SDS011;10301;50.832;4.080;2023-04-07T13:22:43;15.82;;;3.92;;
20283;SDS011;10301;50.832;4.080;2023-04-07T13:25:09;17.60;;;4.97;;
20283;SDS011;10301;50.832;4.080;2023-04-07T13:27:35;23.75;;;5.85;;
20283;SDS011;10301;50.832;4.080;2023-04-07T13:30:00;31.27;;;8.20;;
20283;SDS011;10301;50.832;4.080;2023-04-07T13:32:26;36.28;;;8.30;;
20283;SDS011;10301;50.832;4.080;2023-04-07T13:34:51;40.22;;;9.57;;
20283;SDS011;10301;50.832;4.080;2023-04-07T13:37:17;36.00;;;9.43;;
20283;SDS011;10301;50.832;4.080;2023-04-07T13:39:43;45.28;;;10.70;;
20283;SDS011;10301;50.832;4.080;2023-04-07T13:42:09;44.40;;;10.90;;
20283;SDS011;10301;50.832;4.080;2023-04-07T13:44:35;52.30;;;12.90;;
20283;SDS011;10301;50.832;4.080;2023-04-07T13:47:01;45.47;;;11.27;;
20283;SDS011;10301;50.832;4.080;2023-04-07T13:49:28;43.30;;;9.90;;
20283;SDS011;10301;50.832;4.080;2023-04-07T13:51:54;40.58;;;11.15;;
20283;SDS011;10301;50.832;4.080;2023-04-07T13:54:19;46.17;;;12.40;;
20283;SDS011;10301;50.832;4.080;2023-04-07T13:56:45;41.80;;;12.13;;
20283;SDS011;10301;50.832;4.080;2023-04-07T13:59:13;43.33;;;13.70;;
20283;SDS011;10301;50.832;4.080;2023-04-07T14:01:38;46.92;;;15.88;;
20283;SDS011;10301;50.832;4.080;2023-04-07T14:04:04;45.92;;;15.05;;
20283;SDS011;10301;50.832;4.080;2023-04-07T14:06:30;47.58;;;14.88;;
20283;SDS011;10301;50.832;4.080;2023-04-07T14:08:56;39.83;;;13.02;;
20283;SDS011;10301;50.832;4.080;2023-04-07T14:11:22;36.40;;;12.50;;
20283;SDS011;10301;50.832;4.080;2023-04-07T14:13:48;26.20;;;10.60;;
20283;SDS011;10301;50.832;4.080;2023-04-07T14:16:15;25.85;;;8.80;;
20283;SDS011;10301;50.832;4.080;2023-04-07T14:18:42;20.73;;;8.20;;
20283;SDS011;10301;50.832;4.080;2023-04-07T14:21:08;16.13;;;5.85;;
20283;SDS011;10301;50.832;4.080;2023-04-07T14:23:34;18.20;;;5.85;;
20283;SDS011;10301;50.832;4.080;2023-04-07T14:26:00;13.73;;;5.00;;
20283;SDS011;10301;50.832;4.080;2023-04-07T14:28:26;12.65;;;4.63;;
20283;SDS011;10301;50.832;4.080;2023-04-07T14:30:52;14.10;;;4.10;;
20283;SDS011;10301;50.832;4.080;2023-04-07T14:33:19;8.63;;;3.40;;
20283;SDS011;10301;50.832;4.080;2023-04-07T14:35:45;11.10;;;4.38;;
20283;SDS011;10301;50.832;4.080;2023-04-07T14:38:11;9.57;;;5.30;;
20283;SDS011;10301;50.832;4.080;2023-04-07T14:40:37;12.38;;;6.78;;
20283;SDS011;10301;50.832;4.080;2023-04-07T14:43:03;15.23;;;8.00;;
20283;SDS011;10301;50.832;4.080;2023-04-07T14:45:31;18.90;;;11.43;;
20283;SDS011;10301;50.832;4.080;2023-04-07T14:47:56;18.55;;;10.75;;
20283;SDS011;10301;50.832;4.080;2023-04-07T14:50:22;18.90;;;9.20;;
20283;SDS011;10301;50.832;4.080;2023-04-07T14:52:48;18.00;;;8.40;;
20283;SDS011;10301;50.832;4.080;2023-04-07T14:55:14;11.05;;;5.00;;
20283;SDS011;10301;50.832;4.080;2023-04-07T14:57:40;6.50;;;2.25;;
20283;SDS011;10301;50.832;4.080;2023-04-07T15:00:06;7.30;;;2.80;;